Time;durP1;ratioP1;P1;durP2;ratioP2;P2;SDS_P1;SDS_P2;PMS_P1;PMS_P2;Temp;Humidity;BMP_temperature;BMP_pressure;BME280_temperature;BME280_humidity;BME280_pressure;Samples;Min_cycle;Max_cycle;Signal;HPM_P1;HPM_P2
2021/08/17 00:01:19;;;;;;;;;;;;;;;13.07;100.00;98971.53;4993777;28;20020;-81
2021/08/17 00:03:44;;;;;;;;;;;;;;;13.06;100.00;98967.28;4990058;28;20028;-81
2021/08/17 00:06:10;;;;;;;;;;;;;;;13.44;100.00;98962.25;4991421;28;19917;-81
2021/08/17 00:08:36;;;;;;;;;;;;;;;13.31;100.00;98957.59;4998585;28;19933;-81
2021/08/17 00:11:01;;;;;;;;;;;;;;;13.45;100.00;98961.31;4991738;28;20004;-81
2021/08/17 00:13:26;;;;;;;;;;;;;;;13.44;100.00;98949.31;4990468;28;19925;-81
2021/08/17 00:15:51;;;;;;;;;;;;;;;13.53;100.00;98957.50;4997481;28;20032;-81
2021/08/17 00:18:17;;;;;;;;;;;;;;;13.03;100.00;98960.50;4992071;28;19925;-80
2021/08/17 00:20:42;;;;;;;;;;;;;;;13.45;100.00;98954.41;4992272;28;20574;-81
2021/08/17 00:23:08;;;;;;;;;;;;;;;13.20;100.00;98959.78;4991687;28;19909;-81
2021/08/17 00:25:34;;;;;;;;;;;;;;;13.46;100.00;98960.44;4990961;28;19988;-80
2021/08/17 00:27:59;;;;;;;;;;;;;;;13.30;100.00;98961.09;4999969;28;19929;-81
2021/08/17 00:30:25;;;;;;;;;;;;;;;13.69;100.00;98949.03;4991736;28;19925;-80
2021/08/17 00:32:50;;;;;;;;;;;;;;;13.49;100.00;98955.09;5007104;28;19937;-81
2021/08/17 00:35:15;;;;;;;;;;;;;;;13.44;100.00;98962.25;4993184;28;20322;-81
2021/08/17 00:37:41;;;;;;;;;;;;;;;13.43;100.00;98955.38;5004452;28;20009;-81
2021/08/17 00:40:06;;;;;;;;;;;;;;;13.75;100.00;98961.69;4990823;28;19918;-81
2021/08/17 00:42:33;;;;;;;;;;;;;;;13.68;100.00;98955.94;4968470;28;19921;-81
2021/08/17 00:45:02;;;;;;;;;;;;;;;13.55;100.00;98949.66;4993009;28;19944;-82
2021/08/17 00:47:27;;;;;;;;;;;;;;;13.60;100.00;98958.06;4992679;28;19924;-81
2021/08/17 00:49:52;;;;;;;;;;;;;;;13.56;100.00;98951.34;4995695;28;19921;-81
2021/08/17 00:52:18;;;;;;;;;;;;;;;13.47;100.00;98956.91;4996627;28;19932;-81
2021/08/17 00:54:43;;;;;;;;;;;;;;;13.38;100.00;98964.16;4995607;28;20059;-81
2021/08/17 00:57:09;;;;;;;;;;;;;;;13.41;100.00;98960.63;4998532;28;19988;-81
2021/08/17 00:59:36;;;;;;;;;;;;;;;13.31;100.00;98964.53;4999082;28;19917;-81
2021/08/17 01:02:02;;;;;;;;;;;;;;;13.36;100.00;98967.72;4993609;28;19922;-80
2021/08/17 01:04:27;;;;;;;;;;;;;;;13.48;100.00;98971.53;5000406;28;19932;-81
2021/08/17 01:06:52;;;;;;;;;;;;;;;13.63;100.00;98962.25;4995030;28;19918;-80
2021/08/17 01:09:18;;;;;;;;;;;;;;;13.65;100.00;98963.03;4993280;28;19963;-81
2021/08/17 01:11:44;;;;;;;;;;;;;;;14.18;100.00;98959.69;5002842;28;19988;-80
2021/08/17 01:14:09;;;;;;;;;;;;;;;13.67;100.00;98964.63;4997317;28;19926;-81
2021/08/17 01:16:35;;;;;;;;;;;;;;;13.59;100.00;98965.00;4995078;28;20335;-80
2021/08/17 01:19:00;;;;;;;;;;;;;;;13.64;100.00;98964.78;5002499;28;20377;-81
2021/08/17 01:21:26;;;;;;;;;;;;;;;13.86;100.00;98963.78;5001496;28;20025;-81
2021/08/17 01:23:52;;;;;;;;;;;;;;;13.23;100.00;98975.19;5012860;28;19972;-81
2021/08/17 01:26:17;;;;;;;;;;;;;;;13.49;100.00;98970.63;5007293;28;19918;-81
2021/08/17 01:28:42;;;;;;;;;;;;;;;13.66;100.00;98978.50;4995320;28;19997;-81
2021/08/17 01:31:08;;;;;;;;;;;;;;;13.58;100.00;98980.56;4994358;28;19995;-82
2021/08/17 01:33:34;;;;;;;;;;;;;;;13.72;100.00;98988.53;4994682;28;20016;-81
2021/08/17 01:36:00;;;;;;;;;;;;;;;13.41;100.00;98993.41;4996260;28;19930;-81
2021/08/17 01:38:26;;;;;;;;;;;;;;;13.32;100.00;98992.91;4993474;28;19965;-81
2021/08/17 01:40:51;;;;;;;;;;;;;;;13.65;100.00;98996.66;4994929;28;19952;-81
2021/08/17 01:43:17;;;;;;;;;;;;;;;13.21;100.00;98997.66;4995968;28;20437;-81
2021/08/17 01:45:43;;;;;;;;;;;;;;;13.07;100.00;98999.97;5002023;28;19917;-81
2021/08/17 01:48:10;;;;;;;;;;;;;;;13.23;100.00;99002.75;5010234;28;19921;-80
2021/08/17 01:50:36;;;;;;;;;;;;;;;12.86;100.00;99002.56;5008949;28;20450;-81
2021/08/17 01:53:01;;;;;;;;;;;;;;;13.04;100.00;99000.13;4994148;28;19918;-81
2021/08/17 01:55:26;;;;;;;;;;;;;;;13.39;100.00;99006.41;4993948;28;20392;-81
2021/08/17 01:57:52;;;;;;;;;;;;;;;13.22;100.00;99004.50;4994115;28;19925;-81
2021/08/17 02:00:17;;;;;;;;;;;;;;;13.26;100.00;99000.91;5002722;28;19928;-81
2021/08/17 02:02:43;;;;;;;;;;;;;;;13.61;100.00;99001.13;4993526;28;20140;-81
2021/08/17 02:05:08;;;;;;;;;;;;;;;13.67;100.00;99006.03;5001692;28;20897;-81
2021/08/17 02:07:34;;;;;;;;;;;;;;;13.67;100.00;99008.63;5003085;28;19909;-81
2021/08/17 02:09:59;;;;;;;;;;;;;;;14.07;100.00;99004.25;4991589;28;20023;-80
2021/08/17 02:12:24;;;;;;;;;;;;;;;13.85;100.00;99008.72;5000975;28;19930;-81
2021/08/17 02:14:50;;;;;;;;;;;;;;;13.71;100.00;99011.94;4993898;28;19991;-81
2021/08/17 02:17:15;;;;;;;;;;;;;;;13.77;100.00;99007.28;4993030;28;19921;-81
2021/08/17 02:19:40;;;;;;;;;;;;;;;13.58;100.00;99011.63;4993818;28;20304;-82
2021/08/17 02:22:06;;;;;;;;;;;;;;;13.48;100.00;99010.31;4996580;28;20064;-80
2021/08/17 02:24:31;;;;;;;;;;;;;;;13.62;100.00;99013.16;4993495;28;19932;-81
2021/08/17 02:26:56;;;;;;;;;;;;;;;13.60;100.00;99017.56;4999940;28;19928;-81
2021/08/17 02:29:22;;;;;;;;;;;;;;;13.17;100.00;99020.22;4999768;28;19925;-81
2021/08/17 02:31:48;;;;;;;;;;;;;;;13.34;100.00;99022.13;5001786;28;19977;-80
2021/08/17 02:34:13;;;;;;;;;;;;;;;13.39;100.00;99020.19;5001066;28;19913;-81
2021/08/17 02:36:38;;;;;;;;;;;;;;;13.42;100.00;99032.16;4991915;28;19926;-81
2021/08/17 02:39:04;;;;;;;;;;;;;;;13.36;100.00;99024.63;4998439;28;19921;-81
2021/08/17 02:41:29;;;;;;;;;;;;;;;13.21;100.00;99023.53;5001909;28;19905;-81
2021/08/17 02:43:54;;;;;;;;;;;;;;;13.21;100.00;99025.28;4991809;28;19929;-80
2021/08/17 02:46:20;;;;;;;;;;;;;;;13.05;100.00;99030.25;4999978;28;19922;-82
2021/08/17 02:48:45;;;;;;;;;;;;;;;13.14;100.00;99032.47;5000249;28;20008;-81
2021/08/17 02:51:11;;;;;;;;;;;;;;;12.86;100.00;99028.41;4993919;28;19921;-81
2021/08/17 02:53:36;;;;;;;;;;;;;;;12.93;100.00;99035.03;5001596;28;19918;-81
2021/08/17 02:56:01;;;;;;;;;;;;;;;13.15;100.00;99031.53;4994302;28;19922;-81
2021/08/17 02:58:27;;;;;;;;;;;;;;;13.14;100.00;99032.47;4995372;28;19972;-81
2021/08/17 03:00:52;;;;;;;;;;;;;;;13.47;100.00;99029.34;5000018;28;19922;-82
2021/08/17 03:03:17;;;;;;;;;;;;;;;13.14;100.00;99032.47;4990416;28;19921;-81
2021/08/17 03:05:43;;;;;;;;;;;;;;;13.32;100.00;99023.94;4994698;28;19917;-81
2021/08/17 03:08:08;;;;;;;;;;;;;;;13.13;100.00;99031.59;4991384;28;19929;-81
2021/08/17 03:10:35;;;;;;;;;;;;;;;13.22;100.00;99029.53;4990119;28;19917;-82
2021/08/17 03:13:00;;;;;;;;;;;;;;;13.23;100.00;99039.81;4991657;28;20413;-81
2021/08/17 03:15:26;;;;;;;;;;;;;;;13.27;100.00;99038.78;4992359;28;20017;-81
2021/08/17 03:17:51;;;;;;;;;;;;;;;13.04;100.00;99046.66;4998375;28;19921;-81
2021/08/17 03:20:17;;;;;;;;;;;;;;;13.18;100.00;99041.75;4973781;28;19937;-81
2021/08/17 03:22:42;;;;;;;;;;;;;;;13.23;100.00;99037.25;4994800;28;19917;-80
2021/08/17 03:25:09;;;;;;;;;;;;;;;13.35;100.00;99035.91;4996276;28;20116;-81
2021/08/17 03:27:34;;;;;;;;;;;;;;;13.31;100.00;99040.34;4991917;28;19928;-81
2021/08/17 03:30:00;;;;;;;;;;;;;;;13.11;100.00;99043.78;4994381;28;19917;-80
2021/08/17 03:32:25;;;;;;;;;;;;;;;13.18;100.00;99046.91;4997156;28;20117;-81
2021/08/17 03:34:51;;;;;;;;;;;;;;;12.94;100.00;99049.63;5002007;28;19940;-81
2021/08/17 03:37:17;;;;;;;;;;;;;;;13.08;100.00;99043.03;4968713;28;20624;-81
2021/08/17 03:39:42;;;;;;;;;;;;;;;13.46;100.00;99043.22;5001918;28;19922;-80
2021/08/17 03:42:07;;;;;;;;;;;;;;;13.18;100.00;99033.97;4999087;28;19918;-81
2021/08/17 03:44:33;;;;;;;;;;;;;;;13.31;100.00;99040.34;4992346;28;20020;-81
2021/08/17 03:46:58;;;;;;;;;;;;;;;13.19;100.00;99046.03;4999195;28;20420;-81
2021/08/17 03:49:23;;;;;;;;;;;;;;;13.68;100.00;99036.16;4992721;28;19918;-80
2021/08/17 03:51:49;;;;;;;;;;;;;;;13.71;100.00;99043.81;4993590;28;19985;-81
2021/08/17 03:54:14;;;;;;;;;;;;;;;13.35;100.00;99033.31;4992278;28;19920;-80
2021/08/17 03:56:39;;;;;;;;;;;;;;;13.56;100.00;99034.97;4994237;28;19917;-80
2021/08/17 03:59:05;;;;;;;;;;;;;;;13.41;100.00;99029.63;4998791;28;19924;-80
2021/08/17 04:01:30;;;;;;;;;;;;;;;12.98;100.00;99038.25;4997633;28;19979;-81
2021/08/17 04:03:55;;;;;;;;;;;;;;;13.39;100.00;99038.28;4995977;28;19937;-80
2021/08/17 04:06:21;;;;;;;;;;;;;;;13.27;100.00;99033.59;4988188;28;19992;-80
2021/08/17 04:08:48;;;;;;;;;;;;;;;13.47;100.00;99029.34;5003708;28;19988;-80
2021/08/17 04:11:13;;;;;;;;;;;;;;;13.62;100.00;99027.88;4994369;28;19926;-81
2021/08/17 04:13:40;;;;;;;;;;;;;;;13.31;100.00;99034.34;4991148;28;19929;-80
2021/08/17 04:16:05;;;;;;;;;;;;;;;13.50;100.00;99039.56;5009227;28;19926;-80
2021/08/17 04:18:30;;;;;;;;;;;;;;;13.26;100.00;99051.78;4992321;28;19991;-81
2021/08/17 04:20:56;;;;;;;;;;;;;;;13.69;100.00;99044.81;4993533;28;19922;-81
2021/08/17 04:23:21;;;;;;;;;;;;;;;13.48;100.00;99041.38;4988389;28;19922;-81
2021/08/17 04:25:47;;;;;;;;;;;;;;;13.31;100.00;99042.09;4991498;28;20937;-80
2021/08/17 04:28:12;;;;;;;;;;;;;;;13.57;100.00;99038.38;4994251;28;19928;-81
2021/08/17 04:30:37;;;;;;;;;;;;;;;13.64;100.00;99045.00;5013546;28;19985;-80
2021/08/17 04:33:03;;;;;;;;;;;;;;;13.67;100.00;99038.84;5011754;28;19929;-81
2021/08/17 04:35:28;;;;;;;;;;;;;;;13.54;100.00;99056.63;4997391;28;19930;-81
2021/08/17 04:37:53;;;;;;;;;;;;;;;13.13;100.00;99066.97;5002373;28;19921;-79
2021/08/17 04:40:19;;;;;;;;;;;;;;;13.45;100.00;99063.03;5002978;28;19932;-79
2021/08/17 04:42:44;;;;;;;;;;;;;;;13.42;100.00;99060.59;4999667;28;20311;-80
2021/08/17 04:45:10;;;;;;;;;;;;;;;13.32;100.00;99056.72;5003260;28;19914;-80
2021/08/17 04:47:42;;;;;;;;;;;;;;;12.96;100.00;99071.09;5005328;28;19921;-79
2021/08/17 04:50:08;;;;;;;;;;;;;;;13.55;100.00;99063.50;4995194;28;19922;-79
2021/08/17 04:52:33;;;;;;;;;;;;;;;13.07;100.00;99072.38;5000145;28;19921;-81
2021/08/17 04:54:59;;;;;;;;;;;;;;;13.18;100.00;99075.34;5004899;28;19926;-78
2021/08/17 04:57:24;;;;;;;;;;;;;;;13.10;100.00;99073.09;4996947;28;20737;-79
2021/08/17 04:59:49;;;;;;;;;;;;;;;13.35;100.00;99070.38;5001594;28;19925;-78
2021/08/17 05:02:14;;;;;;;;;;;;;;;13.65;100.00;99072.53;5001535;28;20427;-79
2021/08/17 05:04:40;;;;;;;;;;;;;;;13.59;100.00;99067.63;4995696;28;19914;-79
2021/08/17 05:07:07;;;;;;;;;;;;;;;13.55;100.00;99073.88;4998804;28;19917;-78
2021/08/17 05:09:32;;;;;;;;;;;;;;;13.46;100.00;99079.44;4999396;28;19922;-78
2021/08/17 05:11:59;;;;;;;;;;;;;;;13.53;100.00;99078.25;5001595;28;20686;-78
2021/08/17 05:14:24;;;;;;;;;;;;;;;13.52;100.00;99079.16;5002148;28;19964;-79
2021/08/17 05:16:51;;;;;;;;;;;;;;;13.52;100.00;99076.56;5006712;28;19953;-79
2021/08/17 05:19:16;;;;;;;;;;;;;;;13.46;100.00;99092.38;5000965;28;20287;-79
2021/08/17 05:21:42;;;;;;;;;;;;;;;13.68;100.00;99087.94;5001614;28;20016;-79
2021/08/17 05:24:07;;;;;;;;;;;;;;;13.73;100.00;99087.72;5000324;28;19988;-79
2021/08/17 05:26:33;;;;;;;;;;;;;;;14.17;100.00;99082.34;4994304;28;19925;-79
2021/08/17 05:28:58;;;;;;;;;;;;;;;13.41;100.00;99081.34;4993427;28;19924;-79
2021/08/17 05:31:23;;;;;;;;;;;;;;;13.63;100.00;99087.28;4994991;28;20002;-79
2021/08/17 05:33:49;;;;;;;;;;;;;;;13.73;100.00;99088.59;5003251;28;19921;-79
2021/08/17 05:36:14;;;;;;;;;;;;;;;13.64;100.00;99089.00;4997760;28;19926;-79
2021/08/17 05:38:40;;;;;;;;;;;;;;;14.02;100.00;99089.88;5009558;28;19953;-78
2021/08/17 05:41:05;;;;;;;;;;;;;;;14.47;100.00;99090.44;4996631;28;19925;-79
2021/08/17 05:43:31;;;;;;;;;;;;;;;14.06;100.00;99094.94;4993995;28;19917;-79
2021/08/17 05:45:56;;;;;;;;;;;;;;;14.03;100.00;99090.75;4994954;28;19917;-79
2021/08/17 05:48:21;;;;;;;;;;;;;;;14.16;100.00;99091.88;4997301;28;19928;-79
2021/08/17 05:50:47;;;;;;;;;;;;;;;14.82;100.00;99087.97;4978982;28;19917;-79
2021/08/17 05:53:12;;;;;;;;;;;;;;;14.97;100.00;99089.00;4992672;28;19944;-79
2021/08/17 05:55:38;;;;;;;;;;;;;;;14.61;100.00;99092.44;4995428;28;19961;-79
2021/08/17 05:58:03;;;;;;;;;;;;;;;14.59;100.00;99100.25;4990280;28;19918;-79
2021/08/17 06:00:29;;;;;;;;;;;;;;;15.07;100.00;99095.41;4992474;28;20619;-79
2021/08/17 06:02:54;;;;;;;;;;;;;;;14.68;100.00;99098.16;4992810;28;19949;-79
2021/08/17 06:05:20;;;;;;;;;;;;;;;15.04;100.00;99095.56;4992712;28;19921;-77
2021/08/17 06:07:46;;;;;;;;;;;;;;;15.51;100.00;99100.16;4993425;28;19980;-78
2021/08/17 06:10:12;;;;;;;;;;;;;;;15.56;100.00;99098.16;4987856;28;20004;-78
2021/08/17 06:12:37;;;;;;;;;;;;;;;15.14;100.00;99101.97;4993622;28;20013;-78
2021/08/17 06:15:03;;;;;;;;;;;;;;;15.33;100.00;99101.09;4995847;28;19925;-78
2021/08/17 06:17:28;;;;;;;;;;;;;;;15.52;100.00;99098.38;4992397;28;20145;-78
2021/08/17 06:19:53;;;;;;;;;;;;;;;15.63;100.00;99098.69;4992612;28;19928;-78
2021/08/17 06:22:19;;;;;;;;;;;;;;;15.21;100.00;99105.09;5001130;28;19953;-77
2021/08/17 06:24:44;;;;;;;;;;;;;;;15.13;100.00;99097.72;4995215;28;19932;-78
2021/08/17 06:27:09;;;;;;;;;;;;;;;15.44;100.00;99097.03;4996910;28;20032;-78
2021/08/17 06:29:35;;;;;;;;;;;;;;;15.11;100.00;99102.13;4988994;28;19928;-78
2021/08/17 06:32:00;;;;;;;;;;;;;;;15.15;100.00;99110.63;4987459;28;19922;-79
2021/08/17 06:34:25;;;;;;;;;;;;;;;15.04;100.00;99109.38;4997796;28;19918;-78
2021/08/17 06:36:51;;;;;;;;;;;;;;;14.78;100.00;99105.44;4990696;28;19913;-77
2021/08/17 06:39:20;;;;;;;;;;;;;;;14.91;100.00;99105.69;4993681;28;19924;-77
2021/08/17 06:41:45;;;;;;;;;;;;;;;14.69;100.00;99111.06;4990341;28;19936;-78
2021/08/17 06:44:10;;;;;;;;;;;;;;;14.78;100.00;99104.59;4998661;28;19914;-78
2021/08/17 06:46:36;;;;;;;;;;;;;;;15.05;100.00;99102.41;4997930;28;19929;-78
2021/08/17 06:49:01;;;;;;;;;;;;;;;15.84;100.00;99096.75;5006306;28;19922;-78
2021/08/17 06:51:27;;;;;;;;;;;;;;;15.67;100.00;99101.03;4983361;28;20302;-78
2021/08/17 06:53:52;;;;;;;;;;;;;;;15.42;100.00;99101.44;5000520;28;19993;-78
2021/08/17 06:56:17;;;;;;;;;;;;;;;15.86;100.00;99097.53;4997782;28;19932;-78
2021/08/17 06:58:43;;;;;;;;;;;;;;;15.68;100.00;99100.13;4987805;28;19921;-79
2021/08/17 07:01:08;;;;;;;;;;;;;;;15.34;100.00;99111.38;5009700;28;19961;-79
2021/08/17 07:03:33;;;;;;;;;;;;;;;15.39;100.00;99106.78;5000505;28;19921;-79
2021/08/17 07:05:59;;;;;;;;;;;;;;;15.57;100.00;99109.38;4996898;28;19918;-80
2021/08/17 07:08:24;;;;;;;;;;;;;;;15.49;100.00;99112.38;4995094;28;19918;-79
2021/08/17 07:10:50;;;;;;;;;;;;;;;15.20;100.00;99124.19;4997741;28;19914;-80
2021/08/17 07:13:15;;;;;;;;;;;;;;;15.40;100.00;99121.44;4994839;28;19926;-77
2021/08/17 07:15:41;;;;;;;;;;;;;;;15.79;100.00;99120.38;4994422;28;20162;-78
2021/08/17 07:18:06;;;;;;;;;;;;;;;16.16;100.00;99110.66;4996360;28;21153;-79
2021/08/17 07:20:32;;;;;;;;;;;;;;;15.97;100.00;99109.97;5012859;28;19921;-78
2021/08/17 07:22:57;;;;;;;;;;;;;;;15.66;100.00;99114.09;4996095;28;19952;-79
2021/08/17 07:25:22;;;;;;;;;;;;;;;16.44;100.00;99106.56;4990664;28;20284;-78
2021/08/17 07:27:47;;;;;;;;;;;;;;;16.29;100.00;99092.66;4992385;28;19918;-78
2021/08/17 07:30:13;;;;;;;;;;;;;;;16.57;100.00;99104.97;5014819;28;19921;-79
2021/08/17 07:32:42;;;;;;;;;;;;;;;15.82;100.00;99109.81;4999924;28;20020;-80
2021/08/17 07:35:08;;;;;;;;;;;;;;;15.91;100.00;99118.91;4999250;28;19921;-78
2021/08/17 07:37:35;;;;;;;;;;;;;;;16.23;100.00;99113.78;5000166;28;19928;-78
2021/08/17 07:40:00;;;;;;;;;;;;;;;15.57;100.00;99104.19;5000237;28;20295;-79
2021/08/17 07:42:26;;;;;;;;;;;;;;;15.97;100.00;99118.59;5004031;28;19913;-78
2021/08/17 07:44:51;;;;;;;;;;;;;;;16.07;100.00;99111.16;4994765;28;19917;-79
2021/08/17 07:47:16;;;;;;;;;;;;;;;16.25;100.00;99107.56;5001770;28;20045;-79
2021/08/17 07:49:42;;;;;;;;;;;;;;;16.72;100.00;99100.72;5011446;28;20448;-80
2021/08/17 07:52:07;;;;;;;;;;;;;;;17.01;100.00;99101.69;5000524;28;19917;-80
2021/08/17 07:54:32;;;;;;;;;;;;;;;16.85;100.00;99121.69;4994438;28;20456;-78
2021/08/17 07:56:58;;;;;;;;;;;;;;;18.01;100.00;99113.25;4993840;28;19976;-80
2021/08/17 07:59:23;;;;;;;;;;;;;;;16.52;100.00;99107.84;4993591;28;20357;-78
2021/08/17 08:01:49;;;;;;;;;;;;;;;17.26;100.00;99110.69;4995790;28;19922;-80
2021/08/17 08:04:14;;;;;;;;;;;;;;;17.19;100.00;99114.56;4992073;28;19925;-80
2021/08/17 08:06:39;;;;;;;;;;;;;;;17.04;100.00;99122.34;4995517;28;20405;-78
2021/08/17 08:09:05;;;;;;;;;;;;;;;17.18;100.00;99103.34;4994387;28;19921;-78
2021/08/17 08:11:30;;;;;;;;;;;;;;;17.21;100.00;99103.16;4995685;28;19925;-80
2021/08/17 08:13:57;;;;;;;;;;;;;;;17.41;100.00;99094.19;5010337;28;19968;-78
2021/08/17 08:16:23;;;;;;;;;;;;;;;18.48;100.00;99091.22;4996001;28;19921;-78
2021/08/17 08:18:48;;;;;;;;;;;;;;;17.61;100.00;99094.75;4999375;28;19921;-78
2021/08/17 08:21:14;;;;;;;;;;;;;;;17.97;100.00;99089.13;5010259;28;20354;-80
2021/08/17 08:23:39;;;;;;;;;;;;;;;18.17;100.00;99093.13;5009006;28;19926;-79
2021/08/17 08:26:05;;;;;;;;;;;;;;;18.22;100.00;99090.25;4990605;28;20703;-79
2021/08/17 08:28:30;;;;;;;;;;;;;;;18.96;100.00;99097.72;5001677;28;19932;-79
2021/08/17 08:30:55;;;;;;;;;;;;;;;19.13;95.53;99090.53;4989594;28;19941;-78
2021/08/17 08:33:21;;;;;;;;;;;;;;;19.44;93.62;99082.34;4999023;28;20446;-77
2021/08/17 08:35:46;;;;;;;;;;;;;;;19.03;100.00;99085.09;4972833;28;19932;-77
2021/08/17 08:38:11;;;;;;;;;;;;;;;18.27;100.00;99088.19;4993436;28;19961;-78
2021/08/17 08:40:37;;;;;;;;;;;;;;;18.41;99.56;99092.56;4993081;28;20364;-78
2021/08/17 08:43:02;;;;;;;;;;;;;;;18.78;100.00;99093.69;4989680;28;19922;-78
2021/08/17 08:45:28;;;;;;;;;;;;;;;18.69;95.24;99089.84;5008849;28;19922;-77
2021/08/17 08:47:53;;;;;;;;;;;;;;;18.75;98.34;99096.47;5009298;28;20473;-77
2021/08/17 08:50:18;;;;;;;;;;;;;;;17.95;100.00;99104.06;4994987;28;20021;-78
2021/08/17 08:52:44;;;;;;;;;;;;;;;19.04;99.59;99110.25;5000157;28;19949;-78
2021/08/17 08:55:10;;;;;;;;;;;;;;;19.05;100.00;99096.28;5007018;28;20594;-78
2021/08/17 08:57:35;;;;;;;;;;;;;;;18.08;100.00;99098.91;5009513;28;19922;-78
2021/08/17 09:00:01;;;;;;;;;;;;;;;18.49;100.00;99098.09;5000164;28;20396;-79
2021/08/17 09:02:30;;;;;;;;;;;;;;;18.75;100.00;99109.50;4996731;28;19921;-78
2021/08/17 09:04:59;;;;;;;;;;;;;;;18.84;100.00;99102.88;4989789;28;19926;-77
2021/08/17 09:07:53;;;;;;;;;;;;;;;19.87;97.35;99089.09;4993453;28;19933;-77
2021/08/17 09:10:23;;;;;;;;;;;;;;;19.24;99.45;99101.13;5003444;28;19922;-78
2021/08/17 09:12:50;;;;;;;;;;;;;;;18.70;100.00;99098.50;5008527;28;19932;-78
2021/08/17 09:15:19;;;;;;;;;;;;;;;18.43;100.00;99098.50;4995252;28;20112;-77
2021/08/17 09:17:55;;;;;;;;;;;;;;;18.42;100.00;99097.66;4996654;28;19922;-78
2021/08/17 09:20:26;;;;;;;;;;;;;;;18.97;93.88;99093.31;5003554;28;19922;-77
2021/08/17 09:22:51;;;;;;;;;;;;;;;18.26;95.28;99089.94;5010720;28;19968;-78
2021/08/17 09:25:16;;;;;;;;;;;;;;;19.29;93.43;99077.31;5014359;28;20464;-78
2021/08/17 09:27:42;;;;;;;;;;;;;;;18.67;99.02;99083.91;5012996;28;19921;-78
2021/08/17 09:30:09;;;;;;;;;;;;;;;18.27;96.54;99080.34;5005393;28;19922;-78
2021/08/17 09:32:34;;;;;;;;;;;;;;;18.41;100.00;99084.75;4996173;28;19922;-78
2021/08/17 09:35:01;;;;;;;;;;;;;;;19.47;100.00;99090.91;4995812;28;20420;-78
2021/08/17 09:37:29;;;;;;;;;;;;;;;18.90;97.11;99092.06;4995370;28;19928;-78
2021/08/17 09:39:55;;;;;;;;;;;;;;;19.06;97.82;99092.72;4983941;28;20024;-77
2021/08/17 09:42:30;;;;;;;;;;;;;;;19.09;95.19;99087.31;5005224;28;20392;-78
2021/08/17 09:45:04;;;;;;;;;;;;;;;17.62;99.12;99093.84;4995862;28;20389;-78
2021/08/17 09:47:29;;;;;;;;;;;;;;;18.29;100.00;99086.31;5000729;28;19961;-78
2021/08/17 09:49:54;;;;;;;;;;;;;;;18.41;100.00;99080.34;5014219;28;19921;-79
2021/08/17 09:52:20;;;;;;;;;;;;;;;19.47;95.49;99081.31;4997734;28;20022;-78
2021/08/17 09:54:46;;;;;;;;;;;;;;;20.01;86.95;99083.72;4996548;28;19921;-78
2021/08/17 09:57:12;;;;;;;;;;;;;;;19.38;92.07;99089.75;5007121;28;19917;-78
2021/08/17 09:59:39;;;;;;;;;;;;;;;19.33;98.62;99089.22;5014586;28;19928;-78
2021/08/17 10:02:05;;;;;;;;;;;;;;;19.17;97.33;99092.03;4994403;28;19922;-78
2021/08/17 10:04:30;;;;;;;;;;;;;;;18.07;96.72;99099.84;5005515;28;19945;-78
2021/08/17 10:06:57;;;;;;;;;;;;;;;17.90;100.00;99093.91;5000838;28;20116;-78
2021/08/17 10:09:23;;;;;;;;;;;;;;;18.12;95.83;99090.81;5000423;28;20175;-78
2021/08/17 10:11:49;;;;;;;;;;;;;;;17.92;99.01;99084.22;5004557;28;20400;-80
2021/08/17 10:14:15;;;;;;;;;;;;;;;17.60;100.00;99074.88;5005703;28;19981;-78
2021/08/17 10:16:44;;;;;;;;;;;;;;;17.88;100.00;99067.09;4997459;28;19972;-79
2021/08/17 10:19:13;;;;;;;;;;;;;;;18.07;98.65;99076.41;4999304;28;19960;-79
2021/08/17 10:21:40;;;;;;;;;;;;;;;18.93;93.33;99082.25;4998577;28;19925;-78
2021/08/17 10:24:24;;;;;;;;;;;;;;;18.16;95.71;99086.25;4998893;28;19936;-79
2021/08/17 10:26:49;;;;;;;;;;;;;;;18.41;95.73;99077.75;5014389;28;19922;-78
2021/08/17 10:29:24;;;;;;;;;;;;;;;17.77;100.00;99077.31;4995747;28;19993;-78
2021/08/17 10:31:50;;;;;;;;;;;;;;;18.59;95.52;99073.13;4997016;28;19983;-78
2021/08/17 10:34:16;;;;;;;;;;;;;;;18.79;95.23;99062.28;5004938;28;19917;-79
2021/08/17 10:36:45;;;;;;;;;;;;;;;18.88;95.29;99062.59;4999427;28;19929;-79
2021/08/17 10:39:17;;;;;;;;;;;;;;;19.40;89.40;99070.44;4997855;28;19918;-79
2021/08/17 10:41:45;;;;;;;;;;;;;;;19.28;86.83;99080.88;4995039;28;19917;-79
2021/08/17 10:44:12;;;;;;;;;;;;;;;19.00;93.15;99075.69;5004890;28;19971;-79
2021/08/17 10:46:40;;;;;;;;;;;;;;;18.75;88.57;99070.38;4994144;28;19922;-79
2021/08/17 10:49:24;;;;;;;;;;;;;;;19.29;90.96;99078.13;4997665;28;19922;-78
2021/08/17 10:51:50;;;;;;;;;;;;;;;18.98;94.64;99084.56;5014678;28;19929;-79
2021/08/17 10:54:16;;;;;;;;;;;;;;;19.25;92.44;99078.44;4993783;28;19922;-79
2021/08/17 10:56:41;;;;;;;;;;;;;;;19.29;90.93;99079.94;4993778;28;19925;-78
2021/08/17 10:59:07;;;;;;;;;;;;;;;19.60;90.22;99087.38;5011324;28;19930;-78
2021/08/17 11:01:35;;;;;;;;;;;;;;;19.76;87.04;99081.97;4994899;28;20007;-78
2021/08/17 11:04:06;;;;;;;;;;;;;;;19.35;84.80;99087.34;4995921;28;19933;-78
2021/08/17 11:06:38;;;;;;;;;;;;;;;18.86;88.05;99077.53;4995121;28;19917;-78
2021/08/17 11:09:05;;;;;;;;;;;;;;;19.04;94.77;99072.88;5002087;28;20599;-78
2021/08/17 11:11:30;;;;;;;;;;;;;;;20.06;85.22;99060.69;5002498;28;19944;-78
2021/08/17 11:14:00;;;;;;;;;;;;;;;20.03;81.90;99062.72;5002784;28;20317;-79
2021/08/17 11:16:25;;;;;;;;;;;;;;;18.88;91.40;99067.81;4989711;28;19922;-80
2021/08/17 11:18:54;;;;;;;;;;;;;;;18.89;89.66;99072.13;4998827;28;19917;-78
2021/08/17 11:21:38;;;;;;;;;;;;;;;18.27;94.23;99078.63;4986886;28;19925;-78
2021/08/17 11:24:20;;;;;;;;;;;;;;;18.34;92.44;99082.50;5011208;28;19968;-78
2021/08/17 11:26:47;;;;;;;;;;;;;;;18.66;87.89;99084.84;4993348;28;19925;-78
2021/08/17 11:29:22;;;;;;;;;;;;;;;17.72;94.86;99093.22;4992168;28;20378;-78
2021/08/17 11:31:47;;;;;;;;;;;;;;;18.97;87.95;99086.31;4995742;28;20580;-78
2021/08/17 11:34:17;;;;;;;;;;;;;;;18.86;89.56;99090.56;4994342;28;19917;-78
2021/08/17 11:37:09;;;;;;;;;;;;;;;18.50;90.19;99094.59;4998527;28;20347;-79
2021/08/17 11:39:37;;;;;;;;;;;;;;;18.54;90.43;99090.81;4997528;28;20678;-79
2021/08/17 11:42:23;;;;;;;;;;;;;;;17.87;96.18;99096.69;5009993;28;20007;-78
2021/08/17 11:44:50;;;;;;;;;;;;;;;18.40;90.53;99099.53;4994535;28;19965;-78
2021/08/17 11:47:16;;;;;;;;;;;;;;;17.76;97.01;99097.28;4994522;28;19918;-78
2021/08/17 11:49:42;;;;;;;;;;;;;;;19.63;83.88;99081.09;5008642;28;19985;-79
2021/08/17 11:52:15;;;;;;;;;;;;;;;19.01;78.83;99074.75;5010515;28;19956;-78
2021/08/17 11:54:45;;;;;;;;;;;;;;;19.27;76.73;99061.75;4995375;28;19918;-78
2021/08/17 11:57:11;;;;;;;;;;;;;;;19.69;78.47;99059.00;5003945;28;19917;-78
2021/08/17 11:59:43;;;;;;;;;;;;;;;18.66;80.37;99071.81;4993774;28;19917;-79
2021/08/17 12:02:09;;;;;;;;;;;;;;;19.83;75.56;99066.72;4996781;28;19921;-78
2021/08/17 12:04:35;;;;;;;;;;;;;;;18.87;82.34;99071.38;4996261;28;19997;-78
2021/08/17 12:07:06;;;;;;;;;;;;;;;18.70;79.53;99068.06;4991494;28;20013;-78
2021/08/17 12:09:36;;;;;;;;;;;;;;;19.40;77.79;99061.75;4992470;28;19918;-79
2021/08/17 12:12:01;;;;;;;;;;;;;;;19.01;77.78;99068.69;4986345;28;20025;-78
2021/08/17 12:14:27;;;;;;;;;;;;;;;19.18;81.61;99054.53;4987491;28;20551;-79
2021/08/17 12:17:02;;;;;;;;;;;;;;;18.76;78.68;99059.81;4991031;28;19922;-79
2021/08/17 12:19:28;;;;;;;;;;;;;;;18.84;77.60;99062.00;5003145;28;19988;-80
2021/08/17 12:21:53;;;;;;;;;;;;;;;19.33;79.61;99060.50;4997361;28;20393;-79
2021/08/17 12:24:22;;;;;;;;;;;;;;;19.97;77.25;99048.28;4990924;28;19944;-79
2021/08/17 12:26:58;;;;;;;;;;;;;;;19.73;72.50;99052.59;4986808;28;21003;-79
2021/08/17 12:29:24;;;;;;;;;;;;;;;19.71;73.17;99057.94;4986482;28;19917;-79
2021/08/17 12:31:51;;;;;;;;;;;;;;;19.19;78.77;99057.03;5002165;28;19921;-79
2021/08/17 12:34:16;;;;;;;;;;;;;;;19.18;80.77;99044.94;5004784;28;19922;-79
2021/08/17 12:36:42;;;;;;;;;;;;;;;19.73;75.92;99050.84;4996272;28;19926;-79